Timeline UpdatesTrip UpdatesNews PostsPvt Posts♥♥Travel TipsAdmin PostsConv PostsFollowed PostsChat RequestsBlog PostsPNR Posts

Disclaimer
Search
 
 
Fri Oct 24, 2014 20:58:41 ISTHomeTrainsΣChainsAtlasPNRForumGalleryNewsFAQTripsMembersLoginFeedback
No Recent News for this Train
Other Trains in the News **new
Latest...
Temporary Augmentation of 1 SL coach from 5/4/14-28/6/14 #1043381
Wed Apr 02, 2014 (11:23PM)
⇐ Return Journey: Train# 15905

15906/Dibrugarh - Kanyakumari Vivek Express

Time-Table HAS CHANGED.
Sep 02 2014 (12:42AM)
Change Departure Station:
Change Arrival Station:
Post a Train Travel TipPost a Train Travel Tip **new
Post a Comment/Question/Picture/VideoPost a Comment/Question/Picture/Video
Inaugural Run
Sat Nov 26, 2011
Pantry/Catering
✓ Pantry Car Avbl
✓ Catering Avbl
Loco/Rake Reversals
DGR/Durgapur (5); VSKP/Visakhapatnam Junction (8);
RSA - Rake Sharing
Rake/Coach Composition
LOCO-SLR-GS-GS-GS-B2-B1-A1-S9-PC-S8-S7-S6-S5-S4-S3-S2-S1-GS-GS-GS-SLR
Loco
Official Loco Links:- DBRG - DGR :- WDM-3A /3D DGR...
Read more...
- VSKP :- WAM-4/WAP-4 VSKP - CAPE :- WAM-4/WAP-4
News    PNR    Forum    Time-Table    Availability    Fare Chart    Map    Arr/Dep History    Trips    Gallery    ΣChains    X/O    Timeline    
Travel Time: 26h 10m    18 halts    Distance: 1377 km    Avg Speed: 52 km/hr
Type: Mail/Express
Zone: NFR/Northeast Frontier
Departs @ 07:40 (Avg 1h 26m late)
Platform# ???
  T    
Vijayawada Junction/BZA 
Arrives @ 09:50 +1 night (Avg 41m late)
Platform# ???
   W   
Kanniyakumari/CAPE 

18 halts. 224 intermediate Stations between Vijayawada Junction and Kanniyakumari

Show ALL intermediate Stations  Show Old Time-Table

#TrkCodeStation NameX/OArrivesAvgDepartsAvgHaltPFDay#KmSpeedElevZoneAddress
1|--|DBRGDibrugarh (4)  -23:45+3111-2858.642108mNFRDibrugarh 786003, Assam
2|--|NTSKNew Tinsukia Junction (3)  00:45+2500:55+3010m--2-2816.657124mNFRDist: Tinsukia, Assam
3|--|MXNMariani Junction (4)  03:45 03:40+2503:55 03:50+2510m12-2659.943117mNFRDist. Jorhat Pin-785634, Assam
4|--|FKGFurkating Junction (2)  04:43+1704:45+172m--2-2621.950 NFRK B Rd, Assam
5|--|DMVDimapur (3)  05:55 06:10+2406:00 06:15+365m--2-2551.757153mNFRDimapur, Nagaland
6|--|DPUDiphu (2)  06:36 06:54+4806:37 06:55+511m--2-2514.435180mNFRDiphu, Assam
7|-=!LMGLumding Junction (5)  08:05 07:50+3808:10 07:55+435m--2-2482.359142mNFRLumding, Assam
8|--|JIDJagi Road (2)  10:41 10:01+5210:42 10:02+541m--2-2358.63962mNFRJagiroad, Assam
9|==|GHYGuwahati (7)  12:00 11:30+3612:15 11:45+4615m--2-2301.57360mNFRGuwahati, Assam
10|--|GLPTGoalpara Town (2)  14:02 13:33+1:2314:04 13:35+1:232m--2-2170.93649mNFRGoalpara Town Rail Station, Assam
11|--|NBQNew Bongaigaon Junction (4)X  15:45 15:00+5015:50 15:10+505 10m--2-2119.56258mNFR783381., Assam
12|==|KOJKokrajhar (3)X  16:19 15:37+1:2216:20 15:38+1:241m--2-2091.67346mNFR03661-270618, Assam
13|--|APDJAlipur Duar Junction (3)  17:30 16:45+1:3017:35 16:50+1:355m--2-2010.43453mNFRDist - Alipurduar, West Bengal
14|--|NJPNew Jalpaiguri Junction (8)X  21:45+1:2722:00+2:0015m32-1841.979114mNFRCity-Siliguri . Dist-Jalpaiguri, West Bengal
15%==%KNEKishanGanj (3)X  23:06+2:1923:08+2:192m--2-1754.65252mNFRKishanganj, Bihar
16%==%MLDTMalda Town (5)X  02:00+2:1602:15+2:1215m--3-1606.45030mERDist - Malda, West Bengal
17%==%RPHRampurhat (3)  04:45+2:0004:50+1:595m13-1482.64341mERDIST - Birbhum, West Bengal
18/==/DGRDurgapur (5)XO07:35+1:4808:00+1:4525m13-1364.44671mERDurgapur, West Bengal
19/==/ASNAsansol Junction (7)  08:55+1:3809:05+1:3810m43-1322.045113mERDist - Bardhaman, West Bengal
20/--/ADRAAdra Junction (4)  10:00+1:1110:05+1:125m43-1280.571190mSERDist - Puruliya, West Bengal
21/==/BQABankura Junction (3)X  10:50+1:0710:52+1:082m--3-1227.69089mSERDist - Bankura, West Bengal
22/==/MDNMidnapore (3)  11:58 12:00+1:5912:00 12:02+1:592m--3-1125.11553mSERMedinipur, West Bengal
23/--/HIJHijli (2)  12:56+1:1312:57+1:181m33-1111.48548mSERdist - paschim medinipur, West Bengal
24/==/BLSBalasore (4)  14:16+1414:18+142m33-999.26919mSERBalasore, Odisha
25/==/BHCBhadrak (4)  15:12+1:1815:14+1:182m--3-936.78823mECoRBhadrak, Odisha
26/==%CTCCuttack Junction (5)  16:31 16:33+1:5616:33 16:35+2:032m--3-821.04828mECoRCuttack, Odisha
27/==/BBSBhubaneswar (4)X  17:13 17:10+2:0717:18 17:15+2:085m43-793.24540mECoRBhubaneshwar, Odisha
28/==/KURKhurda Road Junction (7)X  17:40+1:5417:55+1:5215m--3-774.28025mECoRKhordha, Odisha
29/==/BAMBrahmapur (3)X  19:50 19:45+1:5819:55 19:50+2:005m23-627.12727mECoRBerhampur, Odisha
30/==/PSAPalasa (3)X  22:33+4722:35+482m--3-552.88331mECoRKasibugga, Andhra Pradesh
31/==/CHESrikakulam Road (4)  23:32 23:28+4823:34 23:30+492m--3-479.87634mECoRsrikakulam road ph .no. 08942-287222, Andhra Pradesh
32/==/VZMVizianagaram Junction (5)X  00:30 00:25+4900:32 00:27+502m--4-410.25863mECoRVizianagaram, Andhra Pradesh
33/==/VSKPVisakhapatnam Junction (8)X01:30+5101:50+5120m34-349.13611mECoRVishakhapatnam 530001, Andhra Pradesh
34/==/DVDDuvvada (4)  02:18 02:17+5502:20 02:18+562 1m--4-332.89246mECoRVishakhapatnam District, Andhra Pradesh
35/==/SLOSamalkot Junction (3)  03:46 03:45+1:3003:47+1:301 2m34-199.56118mSCRSamalkot, Andhra Pradesh
36/==/RJYRajahmundry (3)  04:36+1:2004:38+1:232m14-149.36723mSCRRajahmundry ph.no. 0883-2420541, Andhra Pradesh
37/==/EEEluru (3)X  05:59+1:2906:00+1:291m--4-59.44519mSCREluru Ph.no. 08812 226401., Andhra Pradesh
38/==/BZAVijayawada Junction (10)»X  07:20+1:3007:40+1:2620m--40.07724mSCRVijayawada 520001, Andhra Pradesh
39/==/OGLOngole (3)  09:28+1:4009:29+1:411m34138.310812mSCROngole, Andhra Pradesh
40/==/NLRNellore (4)  10:34+1:2410:35+1:241m34255.03421mSCRNellore, Andhra Pradesh
41/==/RURenigunta Junction (5)X  14:10+1:1314:20+1:1310m--4376.969113mSCRChittoor District, Andhra Pradesh
42/==/KPDKatpadi Junction (5)  16:08+1:2916:10+1:292m14501.350213mSRVellore 632007, Tamil Nadu
43/==/JTJJolarpettai Junction (5)X  17:50+1:0517:55+1:045m--4585.272405mSRJolarpettai, Tamil Nadu
44/==/SASalem Junction (6)  19:35+1:0419:40+1:035m--4705.467283mSRSalem, Tamil Nadu
45/==/EDErode Junction (4)  20:35+1:0620:40+1:095m24766.870175mSRErode ph.no: 0424-2256111, Tamil Nadu
46/==/TUPTiruppur (2)X  21:23+1:0921:25+1:092m14817.047305mSRTiruppur. Ph:0421-2200450, Tamil Nadu
47/==/CBECoimbatore Main Junction (6)X  22:30+1:0122:35+1:025m--4867.438416mSRCoimbatore 641001, Tamil Nadu
48/==/PGTPalakkad Junction (4)  00:02+4600:05+483m--5922.77084mSRPalghat Tel: 0491 2555231, Kerala
49/==/TCRThrissur (4)  01:07 01:10+2601:10 01:13+263m15998.6736mSRThrissur Tel: 0487 2423150, Kerala
50/==/AWYAluva (3)  02:03 01:58+5402:05 02:00+552m151053.23412mSRPh: 0484-2624141, Kerala
51/==/ERNErnakulam Town (North) (2)  02:35 02:30+1:0102:40 02:35+1:025m251070.0609mSRTel: 0484 2395198, Kerala
52%==%KTYMKottayam (3)  03:40 03:35+1:2303:45 03:40+1:235m--51130.05615mSRTel: 0481 2563535, Kerala
53%==/CNGRChengannur (3)  04:24 04:17+1:2304:25 04:18+1:241m151164.7596mSRPh: 0479-2452340, Kerala
54/==/QLNKollam Junction (6)  05:40 05:20+1:1805:45 05:25+1:175m151225.84116mSRKollam 0474-2746194, Kerala
55/==/TVCTrivandrum Central (5)  07:05 07:00+1:0307:15 07:10+1:0510m151290.43312mSRThiruvananthapuram 695001, Kerala
56/--/NCJNagercoil Junction (4)  09:25 09:20+5509:30 09:25+565m--51361.43722mSRNagercoil-629002, Tamil Nadu
57/--/CAPEKanniyakumari (3)•  10:00 09:50+41---51377.0-38mSRKanyakumari, Tamil Nadu
Scroll to Top
Scroll to Bottom